sensor_id;sensor_type;location;lat;lon;timestamp;P1;durP1;ratioP1;P2;durP2;ratioP2
60169;SDS011;46042;49.444;6.862;2022-08-02T00:00:32;6.78;;;2.67;;
60169;SDS011;46042;49.444;6.862;2022-08-02T00:02:59;3.60;;;2.67;;
60169;SDS011;46042;49.444;6.862;2022-08-02T00:05:25;5.38;;;2.67;;
60169;SDS011;46042;49.444;6.862;2022-08-02T00:07:52;7.90;;;3.80;;
60169;SDS011;46042;49.444;6.862;2022-08-02T00:10:19;8.70;;;3.13;;
60169;SDS011;46042;49.444;6.862;2022-08-02T00:12:45;8.18;;;3.15;;
60169;SDS011;46042;49.444;6.862;2022-08-02T00:15:12;5.78;;;3.15;;
60169;SDS011;46042;49.444;6.862;2022-08-02T00:17:41;11.57;;;3.58;;
60169;SDS011;46042;49.444;6.862;2022-08-02T00:20:10;6.63;;;4.10;;
60169;SDS011;46042;49.444;6.862;2022-08-02T00:22:37;7.35;;;3.55;;
60169;SDS011;46042;49.444;6.862;2022-08-02T00:25:04;5.53;;;3.60;;
60169;SDS011;46042;49.444;6.862;2022-08-02T00:27:31;6.53;;;3.67;;
60169;SDS011;46042;49.444;6.862;2022-08-02T00:29:58;7.93;;;4.10;;
60169;SDS011;46042;49.444;6.862;2022-08-02T00:32:24;12.40;;;4.40;;
60169;SDS011;46042;49.444;6.862;2022-08-02T00:34:51;11.23;;;3.88;;
60169;SDS011;46042;49.444;6.862;2022-08-02T00:37:18;8.13;;;3.38;;
60169;SDS011;46042;49.444;6.862;2022-08-02T00:39:44;6.93;;;3.55;;
60169;SDS011;46042;49.444;6.862;2022-08-02T00:42:12;7.40;;;3.38;;
60169;SDS011;46042;49.444;6.862;2022-08-02T00:44:40;9.13;;;3.70;;
60169;SDS011;46042;49.444;6.862;2022-08-02T00:47:08;12.77;;;4.53;;
60169;SDS011;46042;49.444;6.862;2022-08-02T00:49:34;6.38;;;3.38;;
60169;SDS011;46042;49.444;6.862;2022-08-02T00:52:01;7.18;;;3.63;;
60169;SDS011;46042;49.444;6.862;2022-08-02T00:54:29;6.07;;;3.35;;
60169;SDS011;46042;49.444;6.862;2022-08-02T00:56:55;10.30;;;4.35;;
60169;SDS011;46042;49.444;6.862;2022-08-02T00:59:22;8.05;;;4.55;;
60169;SDS011;46042;49.444;6.862;2022-08-02T01:01:49;11.25;;;4.75;;
60169;SDS011;46042;49.444;6.862;2022-08-02T01:04:21;10.63;;;5.20;;
60169;SDS011;46042;49.444;6.862;2022-08-02T01:06:57;9.15;;;4.00;;
60169;SDS011;46042;49.444;6.862;2022-08-02T01:09:25;10.57;;;4.53;;
60169;SDS011;46042;49.444;6.862;2022-08-02T01:11:53;6.63;;;4.25;;
60169;SDS011;46042;49.444;6.862;2022-08-02T01:14:19;6.90;;;4.40;;
60169;SDS011;46042;49.444;6.862;2022-08-02T01:16:57;8.88;;;4.57;;
60169;SDS011;46042;49.444;6.862;2022-08-02T01:22:35;9.27;;;5.05;;
60169;SDS011;46042;49.444;6.862;2022-08-02T01:28:25;6.43;;;3.80;;
60169;SDS011;46042;49.444;6.862;2022-08-02T01:33:40;10.82;;;3.70;;
60169;SDS011;46042;49.444;6.862;2022-08-02T01:36:11;6.88;;;3.25;;
60169;SDS011;46042;49.444;6.862;2022-08-02T01:38:44;4.95;;;2.90;;
60169;SDS011;46042;49.444;6.862;2022-08-02T01:41:15;6.25;;;3.45;;
60169;SDS011;46042;49.444;6.862;2022-08-02T01:43:45;9.85;;;6.00;;
60169;SDS011;46042;49.444;6.862;2022-08-02T01:46:15;6.47;;;4.00;;
60169;SDS011;46042;49.444;6.862;2022-08-02T01:48:44;9.55;;;4.50;;
60169;SDS011;46042;49.444;6.862;2022-08-02T01:51:15;5.43;;;3.70;;
60169;SDS011;46042;49.444;6.862;2022-08-02T01:53:44;5.90;;;3.80;;
60169;SDS011;46042;49.444;6.862;2022-08-02T01:56:15;11.30;;;4.65;;
60169;SDS011;46042;49.444;6.862;2022-08-02T01:58:42;6.05;;;4.10;;
60169;SDS011;46042;49.444;6.862;2022-08-02T02:01:11;7.43;;;4.63;;
60169;SDS011;46042;49.444;6.862;2022-08-02T02:03:44;7.40;;;4.60;;
60169;SDS011;46042;49.444;6.862;2022-08-02T02:06:13;8.20;;;5.20;;
60169;SDS011;46042;49.444;6.862;2022-08-02T02:08:41;7.40;;;4.63;;
60169;SDS011;46042;49.444;6.862;2022-08-02T02:11:10;12.65;;;5.43;;
60169;SDS011;46042;49.444;6.862;2022-08-02T02:13:57;7.43;;;4.78;;
60169;SDS011;46042;49.444;6.862;2022-08-02T02:16:27;9.48;;;4.78;;
60169;SDS011;46042;49.444;6.862;2022-08-02T02:18:57;7.28;;;4.75;;
60169;SDS011;46042;49.444;6.862;2022-08-02T02:21:26;10.82;;;4.13;;
60169;SDS011;46042;49.444;6.862;2022-08-02T02:23:57;5.70;;;3.90;;
60169;SDS011;46042;49.444;6.862;2022-08-02T02:26:25;9.63;;;4.03;;
60169;SDS011;46042;49.444;6.862;2022-08-02T02:28:57;6.57;;;3.35;;
60169;SDS011;46042;49.444;6.862;2022-08-02T02:31:26;6.00;;;3.03;;
60169;SDS011;46042;49.444;6.862;2022-08-02T02:34:00;7.60;;;4.63;;
60169;SDS011;46042;49.444;6.862;2022-08-02T02:36:29;6.18;;;4.03;;
60169;SDS011;46042;49.444;6.862;2022-08-02T02:38:59;9.27;;;4.43;;
60169;SDS011;46042;49.444;6.862;2022-08-02T02:41:28;6.85;;;3.95;;
60169;SDS011;46042;49.444;6.862;2022-08-02T02:43:55;6.43;;;4.00;;
60169;SDS011;46042;49.444;6.862;2022-08-02T02:46:25;6.57;;;4.00;;
60169;SDS011;46042;49.444;6.862;2022-08-02T02:48:52;6.57;;;4.00;;
60169;SDS011;46042;49.444;6.862;2022-08-02T02:51:20;5.60;;;3.53;;
60169;SDS011;46042;49.444;6.862;2022-08-02T02:53:47;6.43;;;3.72;;
60169;SDS011;46042;49.444;6.862;2022-08-02T02:56:36;9.63;;;4.40;;
60169;SDS011;46042;49.444;6.862;2022-08-02T02:59:03;11.98;;;5.32;;
60169;SDS011;46042;49.444;6.862;2022-08-02T03:01:32;7.68;;;5.10;;
60169;SDS011;46042;49.444;6.862;2022-08-02T03:04:19;7.93;;;4.47;;
60169;SDS011;46042;49.444;6.862;2022-08-02T03:06:47;6.88;;;4.82;;
60169;SDS011;46042;49.444;6.862;2022-08-02T03:09:14;8.32;;;4.70;;
60169;SDS011;46042;49.444;6.862;2022-08-02T03:11:40;9.88;;;5.72;;
60169;SDS011;46042;49.444;6.862;2022-08-02T03:14:08;7.88;;;5.50;;
60169;SDS011;46042;49.444;6.862;2022-08-02T03:16:43;11.88;;;6.10;;
60169;SDS011;46042;49.444;6.862;2022-08-02T03:19:12;12.80;;;6.32;;
60169;SDS011;46042;49.444;6.862;2022-08-02T03:21:38;12.32;;;7.25;;
60169;SDS011;46042;49.444;6.862;2022-08-02T03:24:07;12.40;;;6.57;;
60169;SDS011;46042;49.444;6.862;2022-08-02T03:26:34;10.13;;;6.53;;
60169;SDS011;46042;49.444;6.862;2022-08-02T03:29:01;12.93;;;6.15;;
60169;SDS011;46042;49.444;6.862;2022-08-02T03:31:36;11.30;;;6.80;;
60169;SDS011;46042;49.444;6.862;2022-08-02T03:34:05;12.63;;;6.38;;
60169;SDS011;46042;49.444;6.862;2022-08-02T03:36:32;9.13;;;5.88;;
60169;SDS011;46042;49.444;6.862;2022-08-02T03:39:01;9.00;;;5.53;;
60169;SDS011;46042;49.444;6.862;2022-08-02T03:41:28;9.77;;;5.85;;
60169;SDS011;46042;49.444;6.862;2022-08-02T03:43:56;20.48;;;6.13;;
60169;SDS011;46042;49.444;6.862;2022-08-02T03:46:24;8.43;;;5.35;;
60169;SDS011;46042;49.444;6.862;2022-08-02T03:48:51;11.85;;;5.68;;
60169;SDS011;46042;49.444;6.862;2022-08-02T03:51:20;10.63;;;5.93;;
60169;SDS011;46042;49.444;6.862;2022-08-02T03:53:48;19.10;;;5.97;;
60169;SDS011;46042;49.444;6.862;2022-08-02T03:56:15;9.13;;;5.60;;
60169;SDS011;46042;49.444;6.862;2022-08-02T03:58:42;10.00;;;5.80;;
60169;SDS011;46042;49.444;6.862;2022-08-02T04:01:14;9.77;;;6.30;;
60169;SDS011;46042;49.444;6.862;2022-08-02T04:03:41;15.35;;;7.05;;
60169;SDS011;46042;49.444;6.862;2022-08-02T04:06:08;12.82;;;5.90;;
60169;SDS011;46042;49.444;6.862;2022-08-02T04:08:35;11.73;;;6.65;;
60169;SDS011;46042;49.444;6.862;2022-08-02T04:11:04;10.27;;;5.65;;
60169;SDS011;46042;49.444;6.862;2022-08-02T04:13:49;13.95;;;6.43;;
60169;SDS011;46042;49.444;6.862;2022-08-02T04:16:22;13.77;;;6.50;;
60169;SDS011;46042;49.444;6.862;2022-08-02T04:19:04;10.25;;;6.28;;
60169;SDS011;46042;49.444;6.862;2022-08-02T04:21:41;10.68;;;5.72;;
60169;SDS011;46042;49.444;6.862;2022-08-02T04:24:17;8.55;;;5.60;;
60169;SDS011;46042;49.444;6.862;2022-08-02T04:26:50;9.88;;;5.55;;
60169;SDS011;46042;49.444;6.862;2022-08-02T04:29:23;8.48;;;4.97;;
60169;SDS011;46042;49.444;6.862;2022-08-02T04:31:51;13.38;;;7.68;;
60169;SDS011;46042;49.444;6.862;2022-08-02T04:34:19;13.23;;;8.43;;
60169;SDS011;46042;49.444;6.862;2022-08-02T04:36:46;14.57;;;9.10;;
60169;SDS011;46042;49.444;6.862;2022-08-02T04:39:13;18.63;;;9.00;;
60169;SDS011;46042;49.444;6.862;2022-08-02T04:41:41;17.60;;;8.82;;
60169;SDS011;46042;49.444;6.862;2022-08-02T04:44:09;14.00;;;7.93;;
60169;SDS011;46042;49.444;6.862;2022-08-02T04:46:37;13.90;;;7.10;;
60169;SDS011;46042;49.444;6.862;2022-08-02T04:49:04;13.35;;;7.60;;
60169;SDS011;46042;49.444;6.862;2022-08-02T04:51:35;12.32;;;7.00;;
60169;SDS011;46042;49.444;6.862;2022-08-02T04:54:04;12.60;;;7.60;;
60169;SDS011;46042;49.444;6.862;2022-08-02T04:59:02;15.98;;;8.63;;
60169;SDS011;46042;49.444;6.862;2022-08-02T05:01:28;12.82;;;7.90;;
60169;SDS011;46042;49.444;6.862;2022-08-02T05:03:55;24.60;;;8.07;;
60169;SDS011;46042;49.444;6.862;2022-08-02T05:06:21;15.85;;;7.47;;
60169;SDS011;46042;49.444;6.862;2022-08-02T05:08:49;22.48;;;8.95;;
60169;SDS011;46042;49.444;6.862;2022-08-02T05:11:18;24.20;;;7.63;;
60169;SDS011;46042;49.444;6.862;2022-08-02T05:13:45;14.98;;;7.43;;
60169;SDS011;46042;49.444;6.862;2022-08-02T05:16:25;20.05;;;9.18;;
60169;SDS011;46042;49.444;6.862;2022-08-02T05:18:57;20.73;;;10.48;;
60169;SDS011;46042;49.444;6.862;2022-08-02T05:23:55;18.58;;;8.73;;
60169;SDS011;46042;49.444;6.862;2022-08-02T05:26:22;22.75;;;10.52;;
60169;SDS011;46042;49.444;6.862;2022-08-02T05:28:48;20.48;;;9.48;;
60169;SDS011;46042;49.444;6.862;2022-08-02T05:31:15;26.85;;;9.38;;
60169;SDS011;46042;49.444;6.862;2022-08-02T05:33:42;28.20;;;9.70;;
60169;SDS011;46042;49.444;6.862;2022-08-02T05:36:08;17.85;;;8.68;;
60169;SDS011;46042;49.444;6.862;2022-08-02T05:38:35;18.90;;;8.95;;
60169;SDS011;46042;49.444;6.862;2022-08-02T05:41:03;17.00;;;9.18;;
60169;SDS011;46042;49.444;6.862;2022-08-02T05:43:31;15.07;;;9.07;;
60169;SDS011;46042;49.444;6.862;2022-08-02T05:45:58;18.00;;;8.63;;
60169;SDS011;46042;49.444;6.862;2022-08-02T05:48:25;11.57;;;7.50;;
60169;SDS011;46042;49.444;6.862;2022-08-02T05:51:05;13.80;;;7.70;;
60169;SDS011;46042;49.444;6.862;2022-08-02T05:53:48;22.33;;;9.13;;
60169;SDS011;46042;49.444;6.862;2022-08-02T05:56:24;19.70;;;8.05;;
60169;SDS011;46042;49.444;6.862;2022-08-02T05:59:11;22.75;;;7.72;;
60169;SDS011;46042;49.444;6.862;2022-08-02T06:01:45;29.60;;;6.65;;
60169;SDS011;46042;49.444;6.862;2022-08-02T06:04:19;40.53;;;7.55;;
60169;SDS011;46042;49.444;6.862;2022-08-02T06:06:53;33.35;;;7.68;;
60169;SDS011;46042;49.444;6.862;2022-08-02T06:09:24;23.10;;;6.75;;
60169;SDS011;46042;49.444;6.862;2022-08-02T06:11:52;27.23;;;7.55;;
60169;SDS011;46042;49.444;6.862;2022-08-02T06:14:30;40.45;;;8.48;;
60169;SDS011;46042;49.444;6.862;2022-08-02T06:16:59;25.95;;;7.07;;
60169;SDS011;46042;49.444;6.862;2022-08-02T06:19:29;40.00;;;7.13;;
60169;SDS011;46042;49.444;6.862;2022-08-02T06:22:14;35.10;;;7.63;;
60169;SDS011;46042;49.444;6.862;2022-08-02T06:25:02;30.77;;;6.57;;
60169;SDS011;46042;49.444;6.862;2022-08-02T06:27:29;34.50;;;6.80;;
60169;SDS011;46042;49.444;6.862;2022-08-02T06:29:57;59.40;;;7.68;;
60169;SDS011;46042;49.444;6.862;2022-08-02T06:32:23;80.85;;;11.77;;
60169;SDS011;46042;49.444;6.862;2022-08-02T06:34:52;46.47;;;7.55;;
60169;SDS011;46042;49.444;6.862;2022-08-02T06:37:26;43.45;;;8.30;;
60169;SDS011;46042;49.444;6.862;2022-08-02T06:42:50;31.58;;;7.15;;
60169;SDS011;46042;49.444;6.862;2022-08-02T06:45:22;33.58;;;8.32;;
60169;SDS011;46042;49.444;6.862;2022-08-02T06:47:49;37.08;;;7.60;;
60169;SDS011;46042;49.444;6.862;2022-08-02T06:50:15;31.55;;;7.05;;
60169;SDS011;46042;49.444;6.862;2022-08-02T06:52:42;33.88;;;7.32;;
60169;SDS011;46042;49.444;6.862;2022-08-02T06:55:09;23.63;;;6.57;;
60169;SDS011;46042;49.444;6.862;2022-08-02T06:57:35;19.60;;;7.70;;
60169;SDS011;46042;49.444;6.862;2022-08-02T07:00:03;26.65;;;7.85;;
60169;SDS011;46042;49.444;6.862;2022-08-02T07:02:35;37.50;;;9.73;;
60169;SDS011;46042;49.444;6.862;2022-08-02T07:05:02;25.40;;;6.75;;
60169;SDS011;46042;49.444;6.862;2022-08-02T07:07:29;16.85;;;6.88;;
60169;SDS011;46042;49.444;6.862;2022-08-02T07:09:56;17.05;;;6.68;;
60169;SDS011;46042;49.444;6.862;2022-08-02T07:12:30;15.23;;;7.57;;
60169;SDS011;46042;49.444;6.862;2022-08-02T07:14:59;26.45;;;7.30;;
60169;SDS011;46042;49.444;6.862;2022-08-02T07:17:28;30.80;;;6.82;;
60169;SDS011;46042;49.444;6.862;2022-08-02T07:19:56;27.33;;;7.25;;
60169;SDS011;46042;49.444;6.862;2022-08-02T07:22:24;30.65;;;6.85;;
60169;SDS011;46042;49.444;6.862;2022-08-02T07:24:53;17.38;;;7.47;;
60169;SDS011;46042;49.444;6.862;2022-08-02T07:27:24;19.63;;;7.15;;
60169;SDS011;46042;49.444;6.862;2022-08-02T07:29:52;14.65;;;7.00;;
60169;SDS011;46042;49.444;6.862;2022-08-02T07:32:20;14.98;;;6.63;;
60169;SDS011;46042;49.444;6.862;2022-08-02T07:34:48;69.53;;;9.18;;
60169;SDS011;46042;49.444;6.862;2022-08-02T07:37:23;13.77;;;6.45;;
60169;SDS011;46042;49.444;6.862;2022-08-02T07:40:12;15.93;;;6.10;;
60169;SDS011;46042;49.444;6.862;2022-08-02T07:42:50;26.17;;;7.32;;
60169;SDS011;46042;49.444;6.862;2022-08-02T07:45:25;14.55;;;7.20;;
60169;SDS011;46042;49.444;6.862;2022-08-02T07:47:52;31.67;;;7.70;;
60169;SDS011;46042;49.444;6.862;2022-08-02T07:50:19;19.02;;;7.00;;
60169;SDS011;46042;49.444;6.862;2022-08-02T07:52:46;15.75;;;6.18;;
60169;SDS011;46042;49.444;6.862;2022-08-02T07:55:14;8.80;;;5.45;;
60169;SDS011;46042;49.444;6.862;2022-08-02T07:57:43;11.70;;;5.13;;
60169;SDS011;46042;49.444;6.862;2022-08-02T08:00:12;6.65;;;5.07;;
60169;SDS011;46042;49.444;6.862;2022-08-02T08:02:41;8.80;;;4.80;;
60169;SDS011;46042;49.444;6.862;2022-08-02T08:05:08;11.10;;;5.55;;
60169;SDS011;46042;49.444;6.862;2022-08-02T08:07:36;6.78;;;5.63;;
60169;SDS011;46042;49.444;6.862;2022-08-02T08:10:04;6.85;;;4.50;;
60169;SDS011;46042;49.444;6.862;2022-08-02T08:12:32;5.75;;;4.15;;
60169;SDS011;46042;49.444;6.862;2022-08-02T08:14:58;7.28;;;4.20;;
60169;SDS011;46042;49.444;6.862;2022-08-02T08:17:25;8.70;;;4.00;;
60169;SDS011;46042;49.444;6.862;2022-08-02T08:19:52;4.88;;;3.70;;
60169;SDS011;46042;49.444;6.862;2022-08-02T08:22:19;7.55;;;4.05;;
60169;SDS011;46042;49.444;6.862;2022-08-02T08:24:46;4.93;;;3.90;;
60169;SDS011;46042;49.444;6.862;2022-08-02T08:27:14;6.30;;;4.63;;
60169;SDS011;46042;49.444;6.862;2022-08-02T08:29:42;5.85;;;4.22;;
60169;SDS011;46042;49.444;6.862;2022-08-02T08:32:09;7.15;;;3.95;;
60169;SDS011;46042;49.444;6.862;2022-08-02T08:34:43;4.75;;;3.78;;
60169;SDS011;46042;49.444;6.862;2022-08-02T08:37:14;5.93;;;4.05;;
60169;SDS011;46042;49.444;6.862;2022-08-02T08:39:44;5.18;;;3.55;;
60169;SDS011;46042;49.444;6.862;2022-08-02T08:42:26;5.95;;;4.10;;
60169;SDS011;46042;49.444;6.862;2022-08-02T08:44:54;7.90;;;3.65;;
60169;SDS011;46042;49.444;6.862;2022-08-02T08:47:23;4.32;;;3.70;;
60169;SDS011;46042;49.444;6.862;2022-08-02T08:50:01;5.00;;;3.72;;
60169;SDS011;46042;49.444;6.862;2022-08-02T08:52:33;4.68;;;3.65;;
60169;SDS011;46042;49.444;6.862;2022-08-02T08:55:05;4.38;;;3.50;;
60169;SDS011;46042;49.444;6.862;2022-08-02T08:57:39;6.32;;;4.18;;
60169;SDS011;46042;49.444;6.862;2022-08-02T09:00:08;8.75;;;3.92;;
60169;SDS011;46042;49.444;6.862;2022-08-02T09:02:41;5.57;;;3.63;;
60169;SDS011;46042;49.444;6.862;2022-08-02T09:05:09;4.32;;;3.58;;
60169;SDS011;46042;49.444;6.862;2022-08-02T09:07:37;9.77;;;3.80;;
60169;SDS011;46042;49.444;6.862;2022-08-02T09:13:16;5.15;;;2.85;;
60169;SDS011;46042;49.444;6.862;2022-08-02T09:16:05;6.25;;;3.17;;
60169;SDS011;46042;49.444;6.862;2022-08-02T09:18:40;4.03;;;2.78;;
60169;SDS011;46042;49.444;6.862;2022-08-02T09:21:13;5.45;;;2.92;;
60169;SDS011;46042;49.444;6.862;2022-08-02T09:26:21;2.55;;;2.22;;
60169;SDS011;46042;49.444;6.862;2022-08-02T09:28:50;2.55;;;2.35;;
60169;SDS011;46042;49.444;6.862;2022-08-02T09:31:21;5.55;;;2.85;;
60169;SDS011;46042;49.444;6.862;2022-08-02T09:33:50;3.13;;;2.83;;
60169;SDS011;46042;49.444;6.862;2022-08-02T09:36:17;4.05;;;2.92;;
60169;SDS011;46042;49.444;6.862;2022-08-02T09:38:55;5.55;;;2.90;;
60169;SDS011;46042;49.444;6.862;2022-08-02T09:41:29;4.20;;;2.53;;
60169;SDS011;46042;49.444;6.862;2022-08-02T09:43:58;4.32;;;2.45;;
60169;SDS011;46042;49.444;6.862;2022-08-02T09:46:32;5.40;;;2.45;;
60169;SDS011;46042;49.444;6.862;2022-08-02T09:49:07;3.63;;;2.72;;
60169;SDS011;46042;49.444;6.862;2022-08-02T09:51:38;4.22;;;2.72;;
60169;SDS011;46042;49.444;6.862;2022-08-02T09:54:16;5.57;;;2.30;;
60169;SDS011;46042;49.444;6.862;2022-08-02T09:56:48;4.40;;;2.40;;
60169;SDS011;46042;49.444;6.862;2022-08-02T09:59:17;2.65;;;2.42;;
60169;SDS011;46042;49.444;6.862;2022-08-02T10:01:46;2.80;;;2.50;;
60169;SDS011;46042;49.444;6.862;2022-08-02T10:04:24;5.93;;;2.42;;
60169;SDS011;46042;49.444;6.862;2022-08-02T10:06:53;5.18;;;2.35;;
60169;SDS011;46042;49.444;6.862;2022-08-02T10:09:20;2.80;;;2.47;;
60169;SDS011;46042;49.444;6.862;2022-08-02T10:11:48;3.33;;;2.75;;
60169;SDS011;46042;49.444;6.862;2022-08-02T10:14:14;3.90;;;3.15;;
60169;SDS011;46042;49.444;6.862;2022-08-02T10:16:42;4.13;;;2.60;;
60169;SDS011;46042;49.444;6.862;2022-08-02T10:19:09;3.17;;;2.65;;
60169;SDS011;46042;49.444;6.862;2022-08-02T10:21:43;2.70;;;2.47;;
60169;SDS011;46042;49.444;6.862;2022-08-02T10:24:13;6.35;;;2.75;;
60169;SDS011;46042;49.444;6.862;2022-08-02T10:26:42;2.80;;;2.17;;
60169;SDS011;46042;49.444;6.862;2022-08-02T10:29:10;2.47;;;2.28;;
60169;SDS011;46042;49.444;6.862;2022-08-02T10:31:49;3.08;;;2.50;;
60169;SDS011;46042;49.444;6.862;2022-08-02T10:34:22;2.97;;;2.67;;
60169;SDS011;46042;49.444;6.862;2022-08-02T10:36:57;3.67;;;2.35;;
60169;SDS011;46042;49.444;6.862;2022-08-02T10:39:42;2.50;;;2.30;;
60169;SDS011;46042;49.444;6.862;2022-08-02T10:42:41;4.45;;;2.72;;
60169;SDS011;46042;49.444;6.862;2022-08-02T10:45:10;2.50;;;2.30;;
60169;SDS011;46042;49.444;6.862;2022-08-02T10:55:47;2.97;;;2.60;;
60169;SDS011;46042;49.444;6.862;2022-08-02T10:58:17;3.17;;;2.20;;
60169;SDS011;46042;49.444;6.862;2022-08-02T11:00:45;3.35;;;2.50;;
60169;SDS011;46042;49.444;6.862;2022-08-02T11:03:32;4.13;;;2.28;;
60169;SDS011;46042;49.444;6.862;2022-08-02T11:06:06;4.43;;;2.42;;
60169;SDS011;46042;49.444;6.862;2022-08-02T11:09:23;6.30;;;2.53;;
60169;SDS011;46042;49.444;6.862;2022-08-02T11:12:05;2.88;;;2.58;;
60169;SDS011;46042;49.444;6.862;2022-08-02T11:14:37;8.32;;;2.90;;
60169;SDS011;46042;49.444;6.862;2022-08-02T11:17:10;2.95;;;2.65;;
60169;SDS011;46042;49.444;6.862;2022-08-02T11:22:36;4.68;;;2.67;;
60169;SDS011;46042;49.444;6.862;2022-08-02T11:27:53;7.22;;;2.78;;
60169;SDS011;46042;49.444;6.862;2022-08-02T11:30:23;9.20;;;2.90;;
60169;SDS011;46042;49.444;6.862;2022-08-02T11:32:56;4.47;;;2.88;;
60169;SDS011;46042;49.444;6.862;2022-08-02T11:35:33;5.47;;;3.55;;
60169;SDS011;46042;49.444;6.862;2022-08-02T11:38:17;7.25;;;3.03;;
60169;SDS011;46042;49.444;6.862;2022-08-02T11:40:46;5.38;;;2.25;;
60169;SDS011;46042;49.444;6.862;2022-08-02T11:43:18;4.53;;;2.78;;
60169;SDS011;46042;49.444;6.862;2022-08-02T11:45:47;7.68;;;2.58;;
60169;SDS011;46042;49.444;6.862;2022-08-02T11:48:28;5.22;;;2.65;;
60169;SDS011;46042;49.444;6.862;2022-08-02T11:53:44;6.85;;;2.78;;
60169;SDS011;46042;49.444;6.862;2022-08-02T11:56:28;6.28;;;2.40;;
60169;SDS011;46042;49.444;6.862;2022-08-02T12:01:32;4.53;;;2.63;;
60169;SDS011;46042;49.444;6.862;2022-08-02T12:04:10;4.93;;;2.47;;
60169;SDS011;46042;49.444;6.862;2022-08-02T12:06:37;3.90;;;2.15;;
60169;SDS011;46042;49.444;6.862;2022-08-02T12:09:04;4.88;;;2.40;;
60169;SDS011;46042;49.444;6.862;2022-08-02T12:11:43;5.50;;;2.15;;
60169;SDS011;46042;49.444;6.862;2022-08-02T12:14:13;3.67;;;2.40;;
60169;SDS011;46042;49.444;6.862;2022-08-02T12:16:40;5.38;;;2.65;;
60169;SDS011;46042;49.444;6.862;2022-08-02T12:19:25;5.00;;;2.60;;
60169;SDS011;46042;49.444;6.862;2022-08-02T12:22:10;9.65;;;2.35;;
60169;SDS011;46042;49.444;6.862;2022-08-02T12:24:40;7.00;;;2.42;;
60169;SDS011;46042;49.444;6.862;2022-08-02T12:27:08;8.23;;;2.53;;
60169;SDS011;46042;49.444;6.862;2022-08-02T12:29:37;3.47;;;2.08;;
60169;SDS011;46042;49.444;6.862;2022-08-02T12:32:24;7.13;;;2.40;;
60169;SDS011;46042;49.444;6.862;2022-08-02T12:35:01;4.68;;;2.38;;
60169;SDS011;46042;49.444;6.862;2022-08-02T12:37:34;4.85;;;2.75;;
60169;SDS011;46042;49.444;6.862;2022-08-02T12:40:18;6.28;;;2.60;;
60169;SDS011;46042;49.444;6.862;2022-08-02T12:42:55;4.10;;;2.13;;
60169;SDS011;46042;49.444;6.862;2022-08-02T12:45:28;4.78;;;2.20;;
60169;SDS011;46042;49.444;6.862;2022-08-02T12:48:06;3.20;;;2.08;;
60169;SDS011;46042;49.444;6.862;2022-08-02T12:50:33;2.90;;;2.30;;
60169;SDS011;46042;49.444;6.862;2022-08-02T12:53:15;3.38;;;2.28;;
60169;SDS011;46042;49.444;6.862;2022-08-02T12:56:01;5.55;;;2.28;;
60169;SDS011;46042;49.444;6.862;2022-08-02T12:58:29;4.20;;;2.30;;
60169;SDS011;46042;49.444;6.862;2022-08-02T13:01:11;4.10;;;2.70;;
60169;SDS011;46042;49.444;6.862;2022-08-02T13:03:37;5.18;;;2.53;;
60169;SDS011;46042;49.444;6.862;2022-08-02T13:06:24;2.70;;;2.30;;
60169;SDS011;46042;49.444;6.862;2022-08-02T13:09:13;2.35;;;2.10;;
60169;SDS011;46042;49.444;6.862;2022-08-02T13:11:41;5.88;;;2.55;;
60169;SDS011;46042;49.444;6.862;2022-08-02T13:14:09;2.80;;;2.53;;
60169;SDS011;46042;49.444;6.862;2022-08-02T13:16:37;4.47;;;2.53;;
60169;SDS011;46042;49.444;6.862;2022-08-02T13:19:05;3.80;;;2.10;;
60169;SDS011;46042;49.444;6.862;2022-08-02T13:21:32;3.10;;;2.20;;
60169;SDS011;46042;49.444;6.862;2022-08-02T13:24:18;6.65;;;2.33;;
60169;SDS011;46042;49.444;6.862;2022-08-02T13:27:05;3.05;;;2.10;;
60169;SDS011;46042;49.444;6.862;2022-08-02T13:29:34;6.72;;;2.20;;
60169;SDS011;46042;49.444;6.862;2022-08-02T13:32:01;2.22;;;2.03;;
60169;SDS011;46042;49.444;6.862;2022-08-02T13:34:28;2.50;;;2.28;;
60169;SDS011;46042;49.444;6.862;2022-08-02T13:36:54;7.10;;;2.22;;
60169;SDS011;46042;49.444;6.862;2022-08-02T13:39:21;4.30;;;2.25;;
60169;SDS011;46042;49.444;6.862;2022-08-02T13:41:48;3.17;;;2.10;;
60169;SDS011;46042;49.444;6.862;2022-08-02T13:44:15;2.97;;;2.17;;
60169;SDS011;46042;49.444;6.862;2022-08-02T13:46:41;2.58;;;2.20;;
60169;SDS011;46042;49.444;6.862;2022-08-02T13:49:11;2.75;;;2.22;;
60169;SDS011;46042;49.444;6.862;2022-08-02T13:51:44;4.45;;;2.00;;
60169;SDS011;46042;49.444;6.862;2022-08-02T13:54:11;4.50;;;2.28;;
60169;SDS011;46042;49.444;6.862;2022-08-02T13:56:38;6.63;;;2.33;;
60169;SDS011;46042;49.444;6.862;2022-08-02T13:59:04;10.27;;;2.42;;
60169;SDS011;46042;49.444;6.862;2022-08-02T14:01:51;2.75;;;2.30;;
60169;SDS011;46042;49.444;6.862;2022-08-02T14:04:19;6.20;;;2.40;;
60169;SDS011;46042;49.444;6.862;2022-08-02T14:06:46;2.58;;;2.08;;
60169;SDS011;46042;49.444;6.862;2022-08-02T14:09:12;4.75;;;2.22;;
60169;SDS011;46042;49.444;6.862;2022-08-02T14:11:42;3.60;;;2.05;;
60169;SDS011;46042;49.444;6.862;2022-08-02T14:14:09;5.10;;;2.20;;
60169;SDS011;46042;49.444;6.862;2022-08-02T14:16:42;2.95;;;2.10;;
60169;SDS011;46042;49.444;6.862;2022-08-02T14:19:10;6.32;;;2.10;;
60169;SDS011;46042;49.444;6.862;2022-08-02T14:21:45;5.45;;;2.03;;
60169;SDS011;46042;49.444;6.862;2022-08-02T14:24:14;2.42;;;2.17;;
60169;SDS011;46042;49.444;6.862;2022-08-02T14:26:41;5.72;;;2.10;;
60169;SDS011;46042;49.444;6.862;2022-08-02T14:29:07;3.05;;;2.30;;
60169;SDS011;46042;49.444;6.862;2022-08-02T14:31:34;2.70;;;2.20;;
60169;SDS011;46042;49.444;6.862;2022-08-02T14:34:08;7.95;;;2.40;;
60169;SDS011;46042;49.444;6.862;2022-08-02T14:36:36;7.00;;;2.20;;
60169;SDS011;46042;49.444;6.862;2022-08-02T14:39:03;2.75;;;1.98;;
60169;SDS011;46042;49.444;6.862;2022-08-02T14:41:30;3.05;;;2.17;;
60169;SDS011;46042;49.444;6.862;2022-08-02T14:44:19;2.17;;;1.98;;
60169;SDS011;46042;49.444;6.862;2022-08-02T14:46:45;5.50;;;2.60;;
60169;SDS011;46042;49.444;6.862;2022-08-02T14:49:17;4.60;;;2.13;;
60169;SDS011;46042;49.444;6.862;2022-08-02T14:51:52;3.75;;;2.40;;
60169;SDS011;46042;49.444;6.862;2022-08-02T14:54:19;3.05;;;1.70;;
60169;SDS011;46042;49.444;6.862;2022-08-02T14:57:02;4.63;;;2.00;;
60169;SDS011;46042;49.444;6.862;2022-08-02T14:59:29;5.75;;;2.35;;
60169;SDS011;46042;49.444;6.862;2022-08-02T15:01:56;3.03;;;2.40;;
60169;SDS011;46042;49.444;6.862;2022-08-02T15:04:24;6.30;;;2.25;;
60169;SDS011;46042;49.444;6.862;2022-08-02T15:06:51;5.63;;;2.50;;
60169;SDS011;46042;49.444;6.862;2022-08-02T15:09:19;2.20;;;1.90;;
60169;SDS011;46042;49.444;6.862;2022-08-02T15:11:46;1.90;;;1.73;;
60169;SDS011;46042;49.444;6.862;2022-08-02T15:14:15;2.05;;;1.95;;
60169;SDS011;46042;49.444;6.862;2022-08-02T15:16:51;2.20;;;2.00;;
60169;SDS011;46042;49.444;6.862;2022-08-02T15:19:23;2.47;;;2.28;;
60169;SDS011;46042;49.444;6.862;2022-08-02T15:22:10;2.45;;;2.25;;
60169;SDS011;46042;49.444;6.862;2022-08-02T15:24:42;2.80;;;2.00;;
60169;SDS011;46042;49.444;6.862;2022-08-02T15:27:10;1.98;;;1.75;;
60169;SDS011;46042;49.444;6.862;2022-08-02T15:29:39;4.85;;;2.05;;
60169;SDS011;46042;49.444;6.862;2022-08-02T15:32:06;2.70;;;2.50;;
60169;SDS011;46042;49.444;6.862;2022-08-02T15:34:33;7.45;;;2.20;;
60169;SDS011;46042;49.444;6.862;2022-08-02T15:37:00;3.88;;;2.75;;
60169;SDS011;46042;49.444;6.862;2022-08-02T15:39:27;2.50;;;2.30;;
60169;SDS011;46042;49.444;6.862;2022-08-02T15:41:53;2.50;;;1.90;;
60169;SDS011;46042;49.444;6.862;2022-08-02T15:44:20;2.38;;;2.15;;
60169;SDS011;46042;49.444;6.862;2022-08-02T15:46:47;2.10;;;1.90;;